createdAt,value
2018-10-03T00:02:38.945Z,10.94
2018-10-03T00:07:31.673Z,10.97
2018-10-03T00:12:24.340Z,11.02
2018-10-03T00:17:17.001Z,11.01
2018-10-03T00:22:09.614Z,11.00
2018-10-03T00:27:02.258Z,11.01
2018-10-03T00:31:54.882Z,10.99
2018-10-03T00:36:47.546Z,10.99
2018-10-03T00:41:41.206Z,10.96
2018-10-03T00:46:33.947Z,10.94
2018-10-03T00:51:26.535Z,10.92
2018-10-03T00:56:19.237Z,10.91
2018-10-03T01:01:11.868Z,10.91
2018-10-03T01:06:04.487Z,10.89
2018-10-03T01:10:57.109Z,10.89
2018-10-03T01:15:49.782Z,10.93
2018-10-03T01:20:42.549Z,10.95
2018-10-03T01:25:35.167Z,10.95
2018-10-03T01:30:27.775Z,10.91
2018-10-03T01:35:20.495Z,10.91
2018-10-03T01:40:13.137Z,10.91
2018-10-03T01:45:05.780Z,10.89
2018-10-03T01:49:58.374Z,10.87
2018-10-03T01:54:50.999Z,10.83
2018-10-03T01:59:43.591Z,10.79
2018-10-03T02:04:36.249Z,10.75
2018-10-03T02:09:28.891Z,10.71
2018-10-03T02:14:21.782Z,10.67
2018-10-03T02:19:14.442Z,10.63
2018-10-03T02:24:07.259Z,10.63
2018-10-03T02:28:59.902Z,10.61
2018-10-03T02:33:52.528Z,10.58
2018-10-03T02:38:45.143Z,10.55
2018-10-03T02:43:38.090Z,10.57
2018-10-03T02:48:33.142Z,10.59
2018-10-03T02:53:25.905Z,10.64
2018-10-03T02:58:18.678Z,10.60
2018-10-03T03:03:11.470Z,10.57
2018-10-03T03:08:04.499Z,10.52
2018-10-03T03:12:57.330Z,10.51
2018-10-03T03:17:50.006Z,10.54
2018-10-03T03:22:42.655Z,10.56
2018-10-03T03:27:35.406Z,10.54
2018-10-03T03:32:28.011Z,10.55
2018-10-03T03:37:21.140Z,10.54
2018-10-03T03:42:13.807Z,10.52
2018-10-03T03:47:06.581Z,10.50
2018-10-03T03:51:59.210Z,10.49
2018-10-03T03:56:51.859Z,10.49
2018-10-03T04:01:44.425Z,10.50
2018-10-03T04:06:37.118Z,10.50
2018-10-03T04:11:29.811Z,10.50
2018-10-03T04:16:22.501Z,10.51
2018-10-03T04:21:15.087Z,10.52
2018-10-03T04:26:07.719Z,10.55
2018-10-03T04:31:00.337Z,10.55
2018-10-03T04:35:52.958Z,10.55
2018-10-03T04:40:45.705Z,10.54
2018-10-03T04:45:38.438Z,10.52
2018-10-03T04:50:31.179Z,10.55
2018-10-03T04:55:23.790Z,10.55
2018-10-03T05:00:16.524Z,10.58
2018-10-03T05:05:09.248Z,10.58
2018-10-03T05:10:01.927Z,10.57
2018-10-03T05:14:54.564Z,10.57
2018-10-03T05:19:47.194Z,10.58
2018-10-03T05:24:39.794Z,10.60
2018-10-03T05:29:32.491Z,10.60
2018-10-03T05:34:25.111Z,10.61
2018-10-03T05:39:17.747Z,10.58
2018-10-03T05:44:11.018Z,10.60
2018-10-03T05:49:03.669Z,10.59
2018-10-03T05:53:56.310Z,10.60
2018-10-03T05:58:48.820Z,10.59
2018-10-03T06:03:41.320Z,10.58
2018-10-03T06:08:33.971Z,10.60
2018-10-03T06:13:26.582Z,10.60
2018-10-03T06:18:19.205Z,10.58
2018-10-03T06:23:11.821Z,10.58
2018-10-03T06:28:04.583Z,10.59
2018-10-03T06:32:57.204Z,10.63
2018-10-03T06:37:49.872Z,10.69
2018-10-03T06:42:42.694Z,10.72
2018-10-03T06:47:35.301Z,10.78
2018-10-03T06:52:27.966Z,10.79
2018-10-03T06:57:20.726Z,10.76
2018-10-03T07:02:13.481Z,10.73
2018-10-03T07:07:06.114Z,10.68
2018-10-03T07:11:58.800Z,10.65
2018-10-03T07:16:51.457Z,10.68
2018-10-03T07:21:44.171Z,10.75
2018-10-03T07:26:36.795Z,10.80
2018-10-03T07:31:29.466Z,10.84
2018-10-03T07:36:22.279Z,10.93
2018-10-03T07:41:14.971Z,11.05
2018-10-03T07:46:07.979Z,11.30
2018-10-03T07:51:01.135Z,11.61
2018-10-03T07:55:54.092Z,11.92
2018-10-03T08:00:46.786Z,12.18
2018-10-03T08:05:39.497Z,12.35
2018-10-03T08:10:32.381Z,12.27
2018-10-03T08:15:25.135Z,12.17
2018-10-03T08:20:17.795Z,12.11
2018-10-03T08:25:10.455Z,12.07
2018-10-03T08:30:03.480Z,12.11
2018-10-03T08:34:56.226Z,12.10
2018-10-03T08:39:48.850Z,12.04
2018-10-03T08:44:41.512Z,11.99
2018-10-03T08:49:34.379Z,11.99
2018-10-03T08:54:26.979Z,12.00
2018-10-03T08:59:19.627Z,12.04
2018-10-03T09:04:12.287Z,12.06
2018-10-03T09:09:07.748Z,12.05
2018-10-03T09:14:00.332Z,12.13
2018-10-03T09:18:52.998Z,12.27
2018-10-03T09:23:45.639Z,12.68
2018-10-03T09:28:38.370Z,12.99
2018-10-03T09:33:30.995Z,13.24
2018-10-03T09:38:23.645Z,13.68
2018-10-03T09:43:16.393Z,13.92
2018-10-03T09:48:09.045Z,13.79
2018-10-03T09:53:01.735Z,13.64
2018-10-03T09:57:54.386Z,13.51
2018-10-03T10:02:47.247Z,13.40
2018-10-03T10:07:39.919Z,13.42
2018-10-03T10:12:32.702Z,13.50
2018-10-03T10:17:25.636Z,13.53
2018-10-03T10:22:18.414Z,13.49
2018-10-03T10:27:11.110Z,13.65
2018-10-03T10:32:03.845Z,13.84
2018-10-03T10:36:56.595Z,13.87
2018-10-03T10:41:49.489Z,13.87
2018-10-03T10:46:42.419Z,13.91
2018-10-03T10:51:35.118Z,13.85
2018-10-03T10:56:27.786Z,13.73
2018-10-03T11:01:20.395Z,13.58
2018-10-03T11:06:13.107Z,13.72
2018-10-03T11:11:05.744Z,13.72
2018-10-03T11:15:58.592Z,13.61
2018-10-03T11:20:51.198Z,13.62
2018-10-03T11:25:43.820Z,13.82
2018-10-03T11:30:36.547Z,14.05
2018-10-03T11:35:29.370Z,14.40
2018-10-03T11:40:22.047Z,14.82
2018-10-03T11:45:14.686Z,15.08
2018-10-03T11:50:07.359Z,15.02
2018-10-03T11:55:00.043Z,14.84
2018-10-03T11:59:52.708Z,14.73
2018-10-03T12:04:45.371Z,14.64
2018-10-03T12:09:38.000Z,14.56
2018-10-03T12:14:30.692Z,14.64
2018-10-03T12:19:23.630Z,14.71
2018-10-03T12:24:16.294Z,14.87
2018-10-03T12:29:09.002Z,14.96
2018-10-03T12:34:01.855Z,14.95
2018-10-03T12:38:55.030Z,14.90
2018-10-03T12:43:47.778Z,15.08
2018-10-03T12:48:40.566Z,15.44
2018-10-03T12:53:33.158Z,15.70
2018-10-03T12:58:25.854Z,15.92
2018-10-03T13:03:18.502Z,16.17
2018-10-03T13:08:11.200Z,16.37
2018-10-03T13:13:03.856Z,16.49
2018-10-03T13:17:56.502Z,16.70
2018-10-03T13:22:49.282Z,16.81
2018-10-03T13:27:41.972Z,16.92
2018-10-03T13:32:34.646Z,17.06
2018-10-03T13:37:27.314Z,17.15
2018-10-03T13:42:19.933Z,17.23
2018-10-03T13:47:12.702Z,17.35
2018-10-03T13:52:05.894Z,17.36
2018-10-03T13:56:58.739Z,17.31
2018-10-03T14:01:51.508Z,17.22
2018-10-03T14:06:44.346Z,17.25
2018-10-03T14:11:36.990Z,17.33
2018-10-03T14:16:29.740Z,17.38
2018-10-03T14:21:22.576Z,17.33
2018-10-03T14:26:15.436Z,17.22
2018-10-03T14:31:08.962Z,17.17
2018-10-03T14:36:01.587Z,17.10
2018-10-03T14:40:54.334Z,17.04
2018-10-03T14:45:47.015Z,16.91
2018-10-03T14:50:39.711Z,16.76
2018-10-03T14:55:32.380Z,16.71
2018-10-03T15:00:25.143Z,16.66
2018-10-03T15:05:17.871Z,16.55
2018-10-03T15:10:10.667Z,16.53
2018-10-03T15:15:03.374Z,16.55
2018-10-03T15:25:05.351Z,16.59
2018-10-03T15:29:58.194Z,16.63
2018-10-03T15:34:50.838Z,16.58
2018-10-03T15:39:43.533Z,16.53
2018-10-03T15:44:36.288Z,16.42
2018-10-03T15:49:28.979Z,16.34
2018-10-03T15:54:21.775Z,16.23
2018-10-03T15:59:14.527Z,16.14
2018-10-03T16:04:07.477Z,16.05
2018-10-03T16:09:00.187Z,15.95
2018-10-03T16:13:52.885Z,15.83
2018-10-03T16:18:45.489Z,15.75
2018-10-03T16:23:38.150Z,15.64
2018-10-03T16:28:30.762Z,15.54
2018-10-03T16:33:23.507Z,15.41
2018-10-03T16:38:16.146Z,15.29
2018-10-03T16:43:08.786Z,15.19
2018-10-03T16:48:01.479Z,15.09
2018-10-03T16:52:55.844Z,14.98
2018-10-03T16:57:48.721Z,14.84
2018-10-03T17:02:41.777Z,14.68
2018-10-03T17:07:34.315Z,14.54
2018-10-03T17:12:27.966Z,14.48
2018-10-03T17:17:20.690Z,14.34
2018-10-03T17:22:13.274Z,14.29
2018-10-03T17:27:05.990Z,14.21
2018-10-03T17:31:58.634Z,14.05
2018-10-03T17:36:53.131Z,13.95
2018-10-03T17:41:45.984Z,13.84
2018-10-03T17:46:38.503Z,13.78
2018-10-03T17:51:31.389Z,13.68
2018-10-03T17:56:24.083Z,13.62
2018-10-03T18:01:16.858Z,13.56
2018-10-03T18:06:09.474Z,13.48
2018-10-03T18:11:02.184Z,13.47
2018-10-03T18:15:54.851Z,13.41
2018-10-03T18:20:48.077Z,13.36
2018-10-03T18:25:40.768Z,13.36
2018-10-03T18:30:33.543Z,13.28
2018-10-03T18:35:26.190Z,13.22
2018-10-03T18:40:18.896Z,13.14
2018-10-03T18:45:11.794Z,13.11
2018-10-03T18:50:05.834Z,13.06
2018-10-03T18:54:58.458Z,13.01
2018-10-03T18:59:51.152Z,12.98
2018-10-03T19:04:43.869Z,12.94
2018-10-03T19:09:36.561Z,12.87
2018-10-03T19:14:29.532Z,12.74
2018-10-03T19:19:22.178Z,12.65
2018-10-03T19:24:14.891Z,12.59
2018-10-03T19:29:07.540Z,12.52
2018-10-03T19:34:00.214Z,12.46
2018-10-03T19:38:52.955Z,12.40
2018-10-03T19:43:46.817Z,12.38
2018-10-03T19:48:39.620Z,12.28
2018-10-03T19:53:34.988Z,12.23
2018-10-03T19:58:27.755Z,12.16
2018-10-03T20:03:20.600Z,12.11
2018-10-03T20:08:13.302Z,12.10
2018-10-03T20:13:05.994Z,12.09
2018-10-03T20:17:58.894Z,12.04
2018-10-03T20:22:51.589Z,12.03
2018-10-03T20:27:44.646Z,12.00
2018-10-03T20:32:37.655Z,11.92
2018-10-03T20:37:30.658Z,11.85
2018-10-03T20:42:23.782Z,11.81
2018-10-03T20:47:16.791Z,11.76
2018-10-03T20:52:09.786Z,11.70
2018-10-03T20:57:02.893Z,11.64
2018-10-03T21:01:55.899Z,11.55
2018-10-03T21:06:48.769Z,11.51
2018-10-03T21:11:42.223Z,11.48
2018-10-03T21:16:35.250Z,11.42
2018-10-03T21:21:28.197Z,11.33
2018-10-03T21:26:21.155Z,11.26
2018-10-03T21:31:14.192Z,11.23
2018-10-03T21:36:07.320Z,11.23
2018-10-03T21:41:00.292Z,11.19
2018-10-03T21:45:53.234Z,11.17
2018-10-03T21:50:46.183Z,11.09
2018-10-03T21:55:39.282Z,11.01
2018-10-03T22:00:37.905Z,10.92
2018-10-03T22:05:31.015Z,10.85
2018-10-03T22:10:23.911Z,10.76
2018-10-03T22:15:16.899Z,10.71
2018-10-03T22:20:10.036Z,10.73
2018-10-03T22:25:03.094Z,10.71
2018-10-03T22:29:56.102Z,10.66
2018-10-03T22:34:49.105Z,10.63
2018-10-03T22:39:42.003Z,10.63
2018-10-03T22:44:35.079Z,10.59
2018-10-03T22:49:27.882Z,10.56
2018-10-03T22:54:20.505Z,10.56
2018-10-03T22:59:13.235Z,10.56
2018-10-03T23:04:06.135Z,10.53
2018-10-03T23:08:58.799Z,10.50
2018-10-03T23:13:51.444Z,10.42
2018-10-03T23:18:44.048Z,10.41
2018-10-03T23:23:36.678Z,10.40
2018-10-03T23:28:29.343Z,10.36
2018-10-03T23:33:21.987Z,10.32
2018-10-03T23:38:14.650Z,10.28
2018-10-03T23:43:07.262Z,10.23
2018-10-03T23:47:59.927Z,10.23
2018-10-03T23:52:52.725Z,10.24
2018-10-03T23:57:45.301Z,10.26
